Time;durP1;ratioP1;P1;durP2;ratioP2;P2;SDS_P1;SDS_P2;PMS_P1;PMS_P2;Temp;Humidity;BMP_temperature;BMP_pressure;BME280_temperature;BME280_humidity;BME280_pressure;Samples;Min_cycle;Max_cycle;Signal;HPM_P1;HPM_P2
2023/11/27 00:00:57;;;;;;;6.28;2.22;;;;;;;9.19;100.00;99480.63;4839029;29;20067;-96
2023/11/27 00:03:23;;;;;;;5.03;2.13;;;;;;;9.18;100.00;99474.56;4817226;29;20041;-96
2023/11/27 00:05:49;;;;;;;4.90;2.13;;;;;;;9.18;100.00;99473.72;4829383;29;20605;-94
2023/11/27 00:08:15;;;;;;;5.47;1.88;;;;;;;9.18;100.00;99466.66;4828957;29;20048;-94
2023/11/27 00:10:42;;;;;;;6.75;2.10;;;;;;;9.14;100.00;99459.22;4814974;29;20087;-94
2023/11/27 00:13:11;;;;;;;5.40;2.15;;;;;;;9.11;100.00;99460.34;4818535;29;20064;-94
2023/11/27 00:15:39;;;;;;;11.45;2.20;;;;;;;9.15;100.00;99461.69;4819796;29;20053;-96
2023/11/27 00:18:09;;;;;;;5.20;2.00;;;;;;;9.14;100.00;99462.66;4831105;29;20089;-95
2023/11/27 00:20:38;;;;;;;2.50;1.60;;;;;;;9.18;100.00;99452.63;4841942;29;20046;-96
2023/11/27 00:23:06;;;;;;;6.13;2.08;;;;;;;9.09;100.00;99446.50;4821102;29;20148;-95
2023/11/27 00:25:33;;;;;;;4.90;1.95;;;;;;;9.10;100.00;99453.44;4840816;29;20041;-96
2023/11/27 00:28:00;;;;;;;5.97;2.55;;;;;;;9.09;100.00;99456.22;4826968;29;20057;-96
2023/11/27 00:30:31;;;;;;;2.97;2.40;;;;;;;9.12;100.00;99446.19;4859204;29;20038;-95
2023/11/27 00:32:57;;;;;;;5.03;3.20;;;;;;;9.09;100.00;99443.88;4819635;29;20042;-95
2023/11/27 00:35:26;;;;;;;5.20;2.65;;;;;;;9.13;100.00;99447.00;4840535;29;20045;-95
2023/11/27 00:37:53;;;;;;;5.75;2.17;;;;;;;9.14;100.00;99438.13;4816507;29;20070;-95
2023/11/27 00:40:22;;;;;;;5.00;2.40;;;;;;;9.16;100.00;99441.41;4814377;29;20041;-96
2023/11/27 00:42:48;;;;;;;3.20;1.88;;;;;;;9.17;100.00;99443.06;4843148;29;20041;-96
2023/11/27 00:45:22;;;;;;;6.75;2.20;;;;;;;9.26;100.00;99443.91;4840817;29;20055;-95
2023/11/27 00:47:49;;;;;;;2.33;1.65;;;;;;;9.19;100.00;99435.81;4840258;29;20125;-96
2023/11/27 00:50:15;;;;;;;5.05;2.50;;;;;;;9.15;100.00;99434.50;4863421;29;20037;-95
2023/11/27 00:57:31;;;;;;;4.00;1.80;;;;;;;9.17;100.00;99448.34;4859598;29;20500;-95
2023/11/27 01:49:50;;;;;;;7.35;2.17;;;;;;;9.18;100.00;99403.38;4859554;29;21044;-95
2023/11/27 01:52:17;;;;;;;5.50;1.50;;;;;;;9.13;100.00;99402.19;4829057;29;20042;-95
2023/11/27 01:54:46;;;;;;;7.80;1.67;;;;;;;9.16;100.00;99399.22;4845965;29;20048;-95
2023/11/27 01:57:15;;;;;;;7.38;2.00;;;;;;;9.20;100.00;99400.56;4842879;29;20033;-95
2023/11/27 02:12:19;;;;;;;5.07;1.15;;;;;;;9.21;100.00;99399.56;4806322;29;20110;-95
2023/11/27 02:23:18;;;;;;;10.30;1.45;;;;;;;9.23;100.00;99391.50;4724860;30;20098;-95
2023/11/27 02:25:44;;;;;;;3.90;1.10;;;;;;;9.20;100.00;99395.28;4711094;29;20048;-95
2023/11/27 02:28:12;;;;;;;4.15;1.40;;;;;;;9.18;100.00;99390.19;4825800;29;20739;-95
2023/11/27 02:30:41;;;;;;;5.70;1.42;;;;;;;9.22;100.00;99385.38;4859290;29;20090;-96
2023/11/27 02:33:12;;;;;;;11.07;2.17;;;;;;;9.20;100.00;99384.75;4845533;29;20053;-95
2023/11/27 02:35:50;;;;;;;10.65;2.25;;;;;;;9.17;100.00;99377.97;4829982;29;20038;-95
2023/11/27 02:38:16;;;;;;;5.88;2.20;;;;;;;9.20;100.00;99384.75;4843379;29;20232;-95
2023/11/27 02:40:46;;;;;;;8.18;1.80;;;;;;;9.25;100.00;99377.16;4830881;29;20477;-95
2023/11/27 02:43:14;;;;;;;6.50;2.28;;;;;;;9.29;100.00;99381.13;4861303;29;20045;-95
2023/11/27 02:45:42;;;;;;;9.82;1.75;;;;;;;9.31;100.00;99378.34;4817001;29;20047;-95
2023/11/27 02:48:08;;;;;;;5.78;2.42;;;;;;;9.32;100.00;99379.97;4828899;29;20090;-95
2023/11/27 02:50:34;;;;;;;5.25;1.95;;;;;;;9.35;100.00;99376.22;4808851;29;20142;-95
2023/11/27 02:53:00;;;;;;;10.05;2.17;;;;;;;9.33;100.00;99381.66;4819495;29;20030;-95
2023/11/27 02:55:27;;;;;;;6.50;2.08;;;;;;;9.30;100.00;99369.59;4827572;29;20057;-95
2023/11/27 02:57:54;;;;;;;5.25;1.42;;;;;;;9.30;100.00;99374.88;4827189;29;20085;-95
2023/11/27 03:00:21;;;;;;;9.93;1.45;;;;;;;9.32;100.00;99377.34;4842804;29;20109;-95
2023/11/27 03:02:47;;;;;;;5.93;1.85;;;;;;;9.33;100.00;99386.09;4840972;29;20045;-95
2023/11/27 03:05:16;;;;;;;6.68;1.70;;;;;;;9.33;100.00;99383.44;4808581;29;20037;-95
2023/11/27 03:07:43;;;;;;;9.88;2.50;;;;;;;9.35;100.00;99377.00;4823227;29;20041;-95
2023/11/27 03:10:09;;;;;;;7.00;1.52;;;;;;;9.35;100.00;99365.66;4835383;29;20101;-95
2023/11/27 03:12:37;;;;;;;3.75;1.48;;;;;;;9.32;100.00;99361.50;4848689;29;20403;-95
2023/11/27 03:15:05;;;;;;;4.95;1.17;;;;;;;9.38;100.00;99370.59;4817717;29;20076;-95
2023/11/27 03:18:27;;;;;;;10.30;1.48;;;;;;;9.47;100.00;99374.06;4822849;29;20041;-94
2023/11/27 03:21:27;;;;;;;6.80;1.55;;;;;;;9.41;100.00;99371.09;4822135;29;20048;-95
2023/11/27 03:24:02;;;;;;;5.65;1.17;;;;;;;9.43;100.00;99370.91;4796540;29;20041;-95
2023/11/27 03:26:52;;;;;;;6.53;1.65;;;;;;;9.43;100.00;99371.75;4842733;29;20044;-95
2023/11/27 03:29:24;;;;;;;4.47;1.00;;;;;;;9.47;100.00;99358.25;4834473;29;20038;-95
2023/11/27 03:32:02;;;;;;;7.78;0.90;;;;;;;9.43;100.00;99363.00;4830013;29;20038;-95
2023/11/27 03:34:29;;;;;;;5.65;1.25;;;;;;;9.35;100.00;99363.03;4826891;29;20046;-95
2023/11/27 03:36:55;;;;;;;7.40;0.98;;;;;;;9.35;100.00;99361.19;4811730;29;20056;-95
2023/11/27 03:39:27;;;;;;;10.02;1.25;;;;;;;9.26;100.00;99351.63;4841684;29;20046;-94
2023/11/27 03:41:57;;;;;;;7.00;2.20;;;;;;;9.25;100.00;99353.44;4812425;29;20046;-94
2023/11/27 03:44:23;;;;;;;5.28;1.92;;;;;;;9.24;100.00;99348.31;4810669;29;20039;-95
2023/11/27 03:46:49;;;;;;;3.75;0.80;;;;;;;9.20;100.00;99350.47;4843548;29;20067;-94
2023/11/27 03:49:17;;;;;;;7.20;1.00;;;;;;;9.21;100.00;99346.84;4820988;29;20046;-95
2023/11/27 03:51:52;;;;;;;14.15;1.40;;;;;;;9.25;100.00;99340.25;4814095;29;20088;-95
2023/11/27 03:59:02;;;;;;;11.00;3.97;;;;;;;9.24;100.00;99348.31;4835038;29;20470;-95
2023/11/27 04:01:46;;;;;;;11.93;4.40;;;;;;;9.18;100.00;99344.53;4792197;29;20121;-95
2023/11/27 04:04:15;;;;;;;8.55;2.00;;;;;;;9.23;100.00;99344.88;4791950;29;20098;-95
2023/11/27 04:06:57;;;;;;;8.38;2.03;;;;;;;9.23;100.00;99334.31;4849210;29;20060;-95
2023/11/27 04:09:54;;;;;;;3.13;1.08;;;;;;;9.26;100.00;99343.72;4811293;29;20106;-95
2023/11/27 04:12:50;;;;;;;2.03;0.70;;;;;;;9.17;100.00;99338.44;4805248;29;20052;-95
2023/11/27 04:15:50;;;;;;;4.05;0.75;;;;;;;9.18;100.00;99336.63;4815534;29;20050;-95
2023/11/27 04:18:27;;;;;;;2.65;0.70;;;;;;;9.18;100.00;99337.47;4821510;29;20034;-95
2023/11/27 04:21:02;;;;;;;1.98;0.70;;;;;;;9.08;100.00;99323.59;4803336;29;20497;-94
2023/11/27 04:23:53;;;;;;;3.83;0.65;;;;;;;9.08;100.00;99333.31;4824984;29;20038;-95
2023/11/27 04:26:22;;;;;;;2.80;0.57;;;;;;;9.17;100.00;99333.16;4808334;29;20046;-95
2023/11/27 04:28:54;;;;;;;4.18;0.82;;;;;;;9.15;100.00;99329.88;4814229;29;20482;-95
2023/11/27 04:31:44;;;;;;;5.88;0.55;;;;;;;9.15;100.00;99334.31;4815639;29;20065;-95
2023/11/27 04:34:23;;;;;;;12.60;2.20;;;;;;;9.20;100.00;99349.63;4785463;29;20030;-95
2023/11/27 04:37:07;;;;;;;10.25;3.42;;;;;;;9.20;100.00;99345.19;4804310;29;20033;-95
2023/11/27 04:40:10;;;;;;;11.43;5.63;;;;;;;9.23;100.00;99344.88;4812340;29;20038;-95
2023/11/27 04:43:58;;;;;;;10.50;6.20;;;;;;;9.23;100.00;99342.25;4820103;29;20361;-95
2023/11/27 04:46:42;;;;;;;6.65;3.90;;;;;;;9.22;100.00;99347.69;4825703;29;20477;-95
2023/11/27 04:49:11;;;;;;;7.00;2.90;;;;;;;9.17;100.00;99340.25;4836444;29;20042;-95
2023/11/27 04:52:59;;;;;;;7.97;3.97;;;;;;;9.20;100.00;99339.09;4839270;29;20037;-95
2023/11/27 04:56:01;;;;;;;;;;;;;;;;;;;;;
2023/11/27 04:58:45;;;;;;;16.92;15.02;;;;;;;9.15;100.00;99344.84;4835749;29;20077;-95
2023/11/27 05:01:48;;;;;;;;;;;;;;;;;;;;;
2023/11/27 05:05:25;;;;;;;3.17;0.70;;;;;;;9.20;100.00;99339.09;4861983;29;20385;-95
2023/11/27 05:08:01;;;;;;;3.20;0.75;;;;;;;9.14;100.00;99344.03;4838095;29;20108;-95
2023/11/27 05:11:26;;;;;;;;;;;;;;;;;;;;;
2023/11/27 05:14:08;;;;;;;4.72;0.80;;;;;;;9.20;100.00;99347.84;4845176;29;20042;-95
2023/11/27 05:16:43;;;;;;;2.15;0.68;;;;;;;9.17;100.00;99346.34;4841037;29;20043;-95
2023/11/27 05:19:20;;;;;;;1.77;0.80;;;;;;;9.07;100.00;99343.03;4832425;29;20556;-95
2023/11/27 05:29:54;;;;;;;2.13;1.02;;;;;;;9.11;100.00;99338.28;4827773;29;20469;-95
2023/11/27 05:33:32;;;;;;;0.63;0.57;;;;;;;9.05;100.00;99331.81;4835191;29;20114;-95
2023/11/27 05:36:45;;;;;;;1.80;0.80;;;;;;;8.99;100.00;99335.94;4846806;29;20036;-94
2023/11/27 05:43:51;;;;;;;5.93;5.30;;;;;;;8.92;100.00;99345.44;4792315;29;20144;-95
2023/11/27 05:47:54;;;;;;;;;;;;;;;;;;;;;
2023/11/27 05:51:04;;;;;;;4.93;2.55;;;;;;;8.84;100.00;99335.72;4804891;29;20042;-95
2023/11/27 05:53:33;;;;;;;3.13;2.88;;;;;;;8.84;100.00;99334.91;4799369;29;20513;-95
2023/11/27 05:56:10;;;;;;;1.90;1.13;;;;;;;8.85;100.00;99339.19;4808273;29;20039;-95
2023/11/27 05:58:46;;;;;;;0.95;0.88;;;;;;;8.87;100.00;99342.50;4801749;29;20058;-94
2023/11/27 06:01:31;;;;;;;2.05;0.88;;;;;;;8.75;100.00;99339.31;4807738;29;21382;-94
2023/11/27 06:04:51;;;;;;;2.35;2.17;;;;;;;8.79;100.00;99348.56;4826567;29;20118;-95
2023/11/27 06:08:21;;;;;;;1.65;0.80;;;;;;;8.76;100.00;99354.97;4758223;29;20046;-95
2023/11/27 06:10:56;;;;;;;0.35;0.32;;;;;;;8.68;100.00;99349.66;4774096;29;20060;-95
2023/11/27 06:14:14;;;;;;;2.20;1.60;;;;;;;8.66;100.00;99343.75;4793330;29;20046;-94
2023/11/27 06:16:43;;;;;;;1.73;1.15;;;;;;;8.55;100.00;99343.03;4830915;29;20050;-96
2023/11/27 06:19:10;;;;;;;1.65;0.60;;;;;;;8.50;100.00;99341.84;4827151;29;20038;-95
2023/11/27 06:22:41;;;;;;;3.67;3.47;;;;;;;8.51;100.00;99335.56;4811711;29;20037;-95
2023/11/27 06:25:15;;;;;;;1.27;0.10;;;;;;;8.38;100.00;99343.91;4838130;29;20034;-95
2023/11/27 06:27:41;;;;;;;6.15;1.85;;;;;;;8.30;100.00;99336.78;4860765;29;20124;-95
2023/11/27 06:30:44;;;;;;;;;;;;;;;;;;;;;
2023/11/27 06:33:41;;;;;;;;;;;;;;;;;;;;;
2023/11/27 06:39:35;;;;;;;0.93;0.20;;;;;;;8.25;100.00;99342.53;4841533;29;20480;-95
2023/11/27 06:42:33;;;;;;;;;;;;;;;;;;;;;
2023/11/27 06:45:52;;;;;;;1.42;0.60;;;;;;;8.29;100.00;99333.34;4858647;29;20524;-96
2023/11/27 06:52:09;;;;;;;0.20;0.20;;;;;;;8.21;100.00;99321.94;4846660;29;20045;-95
2023/11/27 06:54:36;;;;;;;0.40;0.20;;;;;;;8.14;100.00;99325.19;4833056;29;20041;-96
2023/11/27 06:57:11;;;;;;;4.80;0.40;;;;;;;8.15;100.00;99328.66;4854807;29;20075;-96
2023/11/27 07:03:29;;;;;;;0.20;0.20;;;;;;;8.18;100.00;99341.53;4858907;29;20041;-96
2023/11/27 07:06:47;;;;;;;0.28;0.17;;;;;;;8.19;100.00;99346.63;4858270;29;20041;-96
2023/11/27 07:10:13;;;;;;;0.32;0.10;;;;;;;8.19;100.00;99361.59;4841587;29;20037;-96
2023/11/27 07:17:14;;;;;;;0.20;0.20;;;;;;;8.26;100.00;99362.63;4858576;29;20423;-95
2023/11/27 07:23:31;;;;;;;0.15;0.10;;;;;;;8.29;100.00;99356.22;4826070;29;20041;-94
2023/11/27 07:30:58;;;;;;;1.08;0.40;;;;;;;8.33;100.00;99370.72;4858550;29;20048;-95
2023/11/27 07:33:34;;;;;;;1.20;0.40;;;;;;;8.28;100.00;99379.06;4850126;29;20041;-95
2023/11/27 07:39:39;;;;;;;1.52;0.30;;;;;;;8.32;100.00;99375.16;4858157;29;20037;-95
2023/11/27 07:42:21;;;;;;;0.70;0.22;;;;;;;8.35;100.00;99374.03;4837619;29;20045;-96
2023/11/27 07:44:48;;;;;;;0.52;0.20;;;;;;;8.39;100.00;99385.06;4863940;29;20491;-95
2023/11/27 07:47:22;;;;;;;1.00;0.10;;;;;;;8.48;100.00;99386.75;4833695;29;20045;-95
2023/11/27 07:49:54;;;;;;;0.47;0.20;;;;;;;8.46;100.00;99394.00;4848831;29;20076;-94
2023/11/27 07:55:40;;;;;;;;;;;;;;;;;;;;;
2023/11/27 07:58:14;;;;;;;5.32;0.47;;;;;;;8.50;100.00;99397.97;4840255;29;20555;-95
2023/11/27 08:01:24;;;;;;;0.68;0.10;;;;;;;8.58;100.00;99406.94;4823832;29;20081;-95
2023/11/27 08:04:23;;;;;;;0.40;0.30;;;;;;;8.64;100.00;99403.66;4844981;29;20400;-95
2023/11/27 08:07:57;;;;;;;0.85;0.28;;;;;;;8.67;100.00;99401.53;4846586;29;20041;-95
2023/11/27 08:10:30;;;;;;;0.45;0.20;;;;;;;8.66;100.00;99412.25;4831770;29;20054;-95
2023/11/27 08:13:08;;;;;;;1.70;0.20;;;;;;;8.64;100.00;99403.66;4814469;29;20053;-95
2023/11/27 08:24:23;;;;;;;1.85;0.20;;;;;;;8.77;100.00;99416.41;4800747;29;20046;-95
2023/11/27 08:27:19;;;;;;;0.95;0.65;;;;;;;8.76;100.00;99418.19;4775235;29;20514;-95
2023/11/27 08:37:46;;;;;;;0.38;0.20;;;;;;;8.76;100.00;99414.75;4872407;29;20060;-94
2023/11/27 08:45:33;;;;;;;0.25;0.25;;;;;;;8.76;100.00;99427.94;4848670;29;20101;-95
2023/11/27 08:49:50;;;;;;;0.40;0.10;;;;;;;8.77;100.00;99427.78;4817062;29;20049;-95
2023/11/27 08:56:55;;;;;;;0.20;0.20;;;;;;;8.78;100.00;99420.69;4765006;30;20136;-95
2023/11/27 09:03:47;;;;;;;0.10;0.10;;;;;;;8.82;100.00;99432.56;4771079;30;20495;-95
2023/11/27 09:10:35;;;;;;;0.77;0.17;;;;;;;8.89;100.00;99443.28;4758979;30;20132;-95
2023/11/27 09:14:25;;;;;;;0.65;0.20;;;;;;;8.87;100.00;99445.28;4772399;29;20101;-95
2023/11/27 09:18:17;;;;;;;0.30;0.30;;;;;;;8.80;100.00;99448.53;4762637;30;20087;-96
2023/11/27 09:21:16;;;;;;;2.47;0.30;;;;;;;8.78;100.00;99442.59;4730863;29;20056;-96
2023/11/27 09:26:56;;;;;;;0.30;0.30;;;;;;;8.67;100.00;99451.59;4817741;29;20049;-95
2023/11/27 09:29:36;;;;;;;5.53;3.83;;;;;;;8.71;100.00;99444.22;4810416;29;20132;-96
2023/11/27 09:36:17;;;;;;;0.20;0.10;;;;;;;8.75;100.00;99457.88;4856176;29;20049;-96
2023/11/27 09:39:22;;;;;;;0.20;0.20;;;;;;;8.78;100.00;99463.66;4816626;29;20097;-96
2023/11/27 09:50:03;;;;;;;1.58;1.25;;;;;;;8.86;100.00;99470.78;4877077;29;20070;-95
2023/11/27 09:53:40;;;;;;;0.55;0.47;;;;;;;8.78;100.00;99479.47;4849098;29;20048;-95
2023/11/27 10:01:06;;;;;;;0.20;0.20;;;;;;;8.74;100.00;99483.41;4827837;29;20058;-95
2023/11/27 10:04:03;;;;;;;;;;;;;;;;;;;;;
2023/11/27 10:07:21;;;;;;;0.10;0.10;;;;;;;8.66;100.00;99486.00;4843423;29;20057;-96
2023/11/27 10:13:55;;;;;;;1.85;0.30;;;;;;;8.40;100.00;99487.63;4860592;29;20504;-95
2023/11/27 10:16:25;;;;;;;2.60;0.30;;;;;;;8.31;100.00;99493.81;4845657;29;20053;-95
2023/11/27 10:23:02;;;;;;;2.80;0.28;;;;;;;8.21;100.00;99493.88;4856954;29;20034;-96
2023/11/27 10:25:39;;;;;;;1.15;0.20;;;;;;;8.25;100.00;99507.59;4837536;29;20037;-96
2023/11/27 10:28:20;;;;;;;0.28;0.20;;;;;;;8.29;100.00;99503.66;4840732;29;20065;-95
2023/11/27 10:30:53;;;;;;;0.77;0.30;;;;;;;8.30;100.00;99502.66;4843637;29;20116;-96
2023/11/27 10:33:22;;;;;;;1.08;0.60;;;;;;;8.33;100.00;99507.63;4819571;29;20037;-95
2023/11/27 10:36:17;;;;;;;2.17;0.47;;;;;;;8.46;100.00;99515.13;4849170;29;20052;-95
2023/11/27 10:50:54;;;;;;;1.75;0.35;;;;;;;8.38;100.00;99525.59;4859672;29;20041;-96
2023/11/27 10:57:55;;;;;;;2.45;1.00;;;;;;;7.96;100.00;99521.81;4850029;29;20041;-95
2023/11/27 11:02:04;;;;;;;1.58;0.50;;;;;;;7.74;100.00;99519.44;4856704;29;20041;-95
2023/11/27 11:09:13;;;;;;;5.13;0.60;;;;;;;7.56;100.00;99519.44;4859561;29;20586;-95
2023/11/27 11:11:55;;;;;;;3.50;0.73;;;;;;;7.53;100.00;99514.47;4830938;29;20136;-96
2023/11/27 11:16:50;;;;;;;;;;;;;;;;;;;;;
2023/11/27 11:20:18;;;;;;;3.00;1.10;;;;;;;7.75;100.00;99513.22;4873919;29;20069;-95
2023/11/27 11:27:20;;;;;;;2.92;0.85;;;;;;;7.86;100.00;99520.06;4861587;29;20045;-96
2023/11/27 11:29:53;;;;;;;3.00;0.60;;;;;;;7.83;100.00;99523.00;4835447;29;20034;-96
2023/11/27 11:33:37;;;;;;;;;;;;;;;;;;;;;
2023/11/27 11:37:40;;;;;;;;;;;;;;;;;;;;;
2023/11/27 11:40:59;;;;;;;1.13;0.30;;;;;;;7.88;100.00;99539.19;4777086;29;20051;-95
2023/11/27 11:47:39;;;;;;;2.00;0.20;;;;;;;7.74;100.00;99547.56;4769914;30;20534;-95
2023/11/27 11:58:29;;;;;;;3.13;0.45;;;;;;;7.82;100.00;99553.72;4790680;29;20072;-95
2023/11/27 12:01:20;;;;;;;2.72;0.43;;;;;;;7.75;100.00;99551.84;4837394;29;20076;-95
2023/11/27 12:04:07;;;;;;;0.95;0.30;;;;;;;7.59;100.00;99555.97;4847694;29;20041;-95
2023/11/27 12:10:58;;;;;;;3.92;0.40;;;;;;;7.61;100.00;99568.97;4853474;29;20100;-95
2023/11/27 12:16:48;;;;;;;2.10;0.50;;;;;;;7.59;100.00;99555.97;4851418;29;20051;-96
2023/11/27 12:19:53;;;;;;;4.85;0.60;;;;;;;7.75;100.00;99575.53;4846974;29;20040;-96
2023/11/27 12:22:44;;;;;;;2.80;0.77;;;;;;;7.81;100.00;99575.75;4830341;29;20049;-95
2023/11/27 12:25:41;;;;;;;2.50;0.30;;;;;;;7.93;100.00;99573.75;4829179;29;20037;-94
2023/11/27 12:28:20;;;;;;;1.67;0.60;;;;;;;7.93;100.00;99567.66;4833625;29;20041;-95
2023/11/27 12:31:30;;;;;;;1.83;0.45;;;;;;;7.80;100.00;99570.66;4840965;29;20052;-95
2023/11/27 12:33:58;;;;;;;4.32;0.60;;;;;;;7.79;100.00;99572.44;4831168;29;20069;-95
2023/11/27 12:36:25;;;;;;;1.70;0.60;;;;;;;7.74;100.00;99590.47;4830064;29;20068;-95
2023/11/27 12:38:54;;;;;;;1.08;0.60;;;;;;;7.74;100.00;99595.72;4829685;29;20068;-95
2023/11/27 12:42:01;;;;;;;2.17;0.43;;;;;;;7.84;100.00;99585.16;4823256;29;20096;-95
2023/11/27 12:44:46;;;;;;;6.25;0.70;;;;;;;7.74;100.00;99590.47;4858397;29;20485;-96
2023/11/27 13:20:57;;;;;;;3.25;0.80;;;;;;;8.17;100.00;99642.59;4822623;29;20049;-96
2023/11/27 13:24:26;;;;;;;;;;;;;;;;;;;;;
2023/11/27 13:27:44;;;;;;;3.08;1.00;;;;;;;8.03;100.00;99634.22;4824137;29;20125;-95
2023/11/27 14:05:20;;;;;;;5.22;0.70;;;;;;;7.94;100.00;99670.16;4738486;30;20079;-96
2023/11/27 14:08:15;;;;;;;0.65;0.35;;;;;;;7.95;100.00;99670.97;4699169;30;20452;-95
2023/11/27 14:11:09;;;;;;;3.22;0.30;;;;;;;7.88;100.00;99675.16;4789834;29;20050;-95
2023/11/27 14:14:10;;;;;;;1.35;0.40;;;;;;;7.92;100.00;99681.78;4830872;29;20116;-95
2023/11/27 14:16:43;;;;;;;2.45;0.43;;;;;;;7.88;100.00;99685.69;4853302;29;20137;-95
2023/11/27 14:26:34;;;;;;;0.50;0.20;;;;;;;7.74;100.00;99703.59;4841203;29;20034;-95
2023/11/27 14:29:18;;;;;;;1.48;0.38;;;;;;;7.81;100.00;99706.47;4840105;29;20046;-95
2023/11/27 14:32:45;;;;;;;0.82;0.30;;;;;;;7.77;100.00;99716.44;4835564;29;20046;-96
2023/11/27 14:38:58;;;;;;;0.98;0.30;;;;;;;7.71;100.00;99726.75;4817494;29;20046;-95
2023/11/27 14:41:58;;;;;;;3.50;0.50;;;;;;;7.68;100.00;99730.47;4826249;29;20609;-96
2023/11/27 14:44:48;;;;;;;1.85;0.30;;;;;;;7.73;100.00;99730.88;4836801;29;20041;-96
2023/11/27 14:47:56;;;;;;;2.80;0.65;;;;;;;7.71;100.00;99737.25;4833936;29;20053;-96
2023/11/27 14:51:27;;;;;;;1.38;0.32;;;;;;;7.64;100.00;99742.25;4850033;29;20453;-96
2023/11/27 14:54:50;;;;;;;5.10;0.60;;;;;;;7.59;100.00;99747.09;4845451;29;20062;-95
2023/11/27 14:57:39;;;;;;;1.33;0.20;;;;;;;7.66;100.00;99748.22;4843704;29;20042;-96
2023/11/27 15:00:40;;;;;;;3.17;0.65;;;;;;;7.57;100.00;99749.88;4810879;29;20125;-96
2023/11/27 15:03:27;;;;;;;3.78;0.50;;;;;;;7.63;100.00;99745.88;4824091;29;20094;-96
2023/11/27 15:06:40;;;;;;;2.05;0.65;;;;;;;7.65;100.00;99755.25;4842498;29;20073;-96
2023/11/27 15:10:06;;;;;;;2.63;0.40;;;;;;;7.64;100.00;99752.78;4859012;29;20075;-96
2023/11/27 15:13:27;;;;;;;1.35;0.43;;;;;;;7.64;100.00;99755.41;4864079;29;20047;-96
2023/11/27 15:16:23;;;;;;;1.65;0.40;;;;;;;7.67;100.00;99753.34;4856695;29;20057;-95
2023/11/27 15:20:22;;;;;;;2.97;1.17;;;;;;;7.72;100.00;99766.06;4867726;29;20049;-95
2023/11/27 15:23:28;;;;;;;4.57;0.47;;;;;;;7.65;100.00;99763.16;4844752;29;20340;-95
2023/11/27 15:26:07;;;;;;;1.52;0.40;;;;;;;7.61;100.00;99774.94;4856509;29;20029;-96
2023/11/27 15:29:31;;;;;;;2.38;0.77;;;;;;;7.61;100.00;99780.19;4828876;29;20042;-96
2023/11/27 15:32:17;;;;;;;2.38;0.88;;;;;;;7.43;100.00;99777.44;4859404;29;20045;-95
2023/11/27 15:34:48;;;;;;;1.25;0.30;;;;;;;7.42;100.00;99783.69;4824254;29;20575;-95
2023/11/27 15:37:25;;;;;;;1.65;0.65;;;;;;;7.37;100.00;99785.91;4822793;29;20069;-96
2023/11/27 15:40:28;;;;;;;3.17;0.90;;;;;;;7.31;100.00;99782.84;4832425;29;20056;-95
2023/11/27 15:43:39;;;;;;;2.90;0.73;;;;;;;7.31;100.00;99784.66;4859006;29;20102;-96
2023/11/27 15:46:29;;;;;;;1.85;0.70;;;;;;;7.27;100.00;99788.53;4827550;29;20053;-96
2023/11/27 15:49:57;;;;;;;2.33;1.00;;;;;;;7.20;100.00;99789.09;4829969;29;20041;-94
2023/11/27 15:52:31;;;;;;;2.67;0.70;;;;;;;7.16;100.00;99794.75;4833904;29;20133;-94
2023/11/27 15:59:28;;;;;;;2.00;0.77;;;;;;;7.09;100.00;99791.03;4881308;29;20048;-96
2023/11/27 16:02:00;;;;;;;4.05;1.00;;;;;;;7.07;100.00;99799.06;4840447;29;20044;-94
2023/11/27 16:04:30;;;;;;;7.53;0.70;;;;;;;7.03;100.00;99798.50;4857058;29;20058;-94
2023/11/27 16:07:01;;;;;;;2.08;0.90;;;;;;;7.04;100.00;99807.22;4841337;29;20489;-94
2023/11/27 16:09:30;;;;;;;3.55;1.05;;;;;;;7.00;100.00;99806.66;4841150;29;20069;-93
2023/11/27 16:11:59;;;;;;;2.10;0.95;;;;;;;7.00;100.00;99801.41;4839557;29;20049;-94
2023/11/27 16:14:34;;;;;;;2.17;0.68;;;;;;;6.93;100.00;99798.47;4822056;29;20489;-94
2023/11/27 16:17:08;;;;;;;3.05;0.90;;;;;;;6.89;100.00;99810.25;4849630;29;20536;-95
2023/11/27 16:19:37;;;;;;;2.40;0.75;;;;;;;6.88;100.00;99818.25;4829978;29;20049;-94
2023/11/27 16:25:32;;;;;;;1.98;0.95;;;;;;;6.83;100.00;99816.84;4838151;29;20049;-93
2023/11/27 16:28:42;;;;;;;5.35;0.85;;;;;;;6.83;100.00;99835.22;4819518;29;20156;-94
2023/11/27 16:31:11;;;;;;;2.08;0.90;;;;;;;6.80;100.00;99824.19;4843091;29;20029;-95
2023/11/27 16:34:10;;;;;;;4.32;0.98;;;;;;;6.76;100.00;99822.78;4846104;29;20052;-95
2023/11/27 16:37:13;;;;;;;5.47;1.10;;;;;;;6.76;100.00;99825.41;4828918;29;20061;-94
2023/11/27 16:40:15;;;;;;;1.33;0.70;;;;;;;6.60;100.00;99832.00;4834608;29;20438;-94
2023/11/27 16:42:50;;;;;;;7.53;1.02;;;;;;;6.61;100.00;99835.47;4818920;29;20061;-94
2023/11/27 16:45:22;;;;;;;4.68;1.15;;;;;;;6.57;100.00;99835.75;4828045;29;20026;-94
2023/11/27 16:47:51;;;;;;;4.40;0.93;;;;;;;6.51;100.00;99846.78;4836143;29;20049;-94
2023/11/27 16:50:25;;;;;;;11.48;1.20;;;;;;;6.48;100.00;99849.66;4825025;29;20049;-95
2023/11/27 16:52:56;;;;;;;2.38;1.00;;;;;;;6.51;100.00;99848.56;4818430;29;20780;-95
2023/11/27 18:02:53;;;;;;;6.80;3.38;;;;;;;5.96;100.00;99919.50;5748135;23;20052;-96
2023/11/27 18:05:36;;;;;;;7.60;2.58;;;;;;;5.85;100.00;99919.56;4883443;29;20118;-95
2023/11/27 18:08:11;;;;;;;4.40;2.53;;;;;;;5.79;100.00;99930.56;4866724;23;20053;-94
2023/11/27 18:10:38;;;;;;;4.72;2.38;;;;;;;5.83;100.00;99951.16;4817740;29;20048;-94
2023/11/27 18:13:14;;;;;;;4.65;1.77;;;;;;;5.83;100.00;99942.44;4808948;29;20099;-94
2023/11/27 18:16:20;;;;;;;12.50;5.63;;;;;;;5.71;100.00;99939.91;4845000;29;20397;-93
2023/11/27 18:18:49;;;;;;;6.15;2.05;;;;;;;5.73;100.00;99942.41;4825342;29;20074;-94
2023/11/27 18:21:20;;;;;;;22.23;8.77;;;;;;;5.66;100.00;99946.47;4849460;29;20046;-96
2023/11/27 18:24:01;;;;;;;8.70;3.78;;;;;;;5.59;100.00;99949.59;4815453;29;20033;-96
2023/11/27 18:26:31;;;;;;;5.22;1.70;;;;;;;5.56;100.00;99965.56;4813191;29;20042;-96
2023/11/27 18:29:13;;;;;;;3.40;1.40;;;;;;;5.49;100.00;99956.53;4804675;29;20060;-96
2023/11/27 18:31:48;;;;;;;;;;;;;;;5.42;100.00;99958.81;4852493;29;20041;-95
2023/11/27 18:34:26;;;;;;;6.90;1.42;;;;;;;5.42;100.00;99966.66;4812035;29;19920;-94
2023/11/27 18:37:02;;;;;;;3.85;1.17;;;;;;;5.32;100.00;99970.97;4813230;29;20049;-96
2023/11/27 18:39:37;;;;;;;5.40;1.42;;;;;;;5.42;100.00;99974.53;4814183;29;20029;-96
2023/11/27 18:42:18;;;;;;;5.57;3.05;;;;;;;5.41;100.00;99975.50;4840180;29;20050;-96
2023/11/27 19:55:26;;;;;;;;;;;;;;;4.68;100.00;100020.41;4854928;29;20135;-96
2023/11/27 20:42:21;;;;;;;6.43;2.67;;;;;;;4.51;100.00;100050.47;4853822;29;20072;-94
2023/11/27 20:44:59;;;;;;;17.05;10.20;;;;;;;4.50;100.00;100047.00;4826635;29;20072;-96
2023/11/27 20:47:37;;;;;;;14.63;9.18;;;;;;;4.51;100.00;100058.31;4851569;29;20045;-96
2023/11/27 20:50:18;;;;;;;10.20;3.67;;;;;;;4.48;100.00;100056.75;4847025;29;20033;-95
2023/11/27 20:52:59;;;;;;;11.02;5.47;;;;;;;4.53;100.00;100057.25;4830704;29;20073;-95
2023/11/27 20:56:06;;;;;;;10.00;3.65;;;;;;;4.55;100.00;100063.22;4828647;29;20068;-93
2023/11/27 20:58:57;;;;;;;10.20;3.03;;;;;;;4.46;100.00;100045.53;4808245;29;20034;-93
2023/11/27 21:05:25;;;;;;;9.30;2.10;;;;;;;4.48;100.00;100059.38;4817084;29;20034;-96
2023/11/27 21:08:25;;;;;;;8.27;3.17;;;;;;;4.46;100.00;100061.25;4810352;29;20048;-95
2023/11/27 21:16:09;;;;;;;9.98;6.13;;;;;;;4.44;100.00;100068.41;4783995;29;20047;-95
2023/11/27 21:34:44;;;;;;;11.18;3.22;;;;;;;4.39;100.00;100088.84;4785788;29;20431;-94
2023/11/27 21:37:13;;;;;;;10.60;3.00;;;;;;;4.40;100.00;100086.09;4744110;29;20051;-94
2023/11/27 21:43:59;;;;;;;11.60;4.30;;;;;;;4.46;100.00;100090.88;4807454;29;20062;-96
2023/11/27 23:19:47;;;;;;;9.90;2.33;;;;;;;3.79;100.00;100132.25;5696256;23;20059;-96
2023/11/27 23:32:38;;;;;;;9.25;2.63;;;;;;;3.70;100.00;100144.19;5444361;23;20080;-95
